AFR81CP LIMF-LFPG
Flight info
| Callsign | AFR81CP |
|---|---|
| Flight time | 1h 3m |
| Altitude | 34000 |
| Route | KUKEV DCT MOLUS DCT UNKIR DCT GIVRI DCT TINIL |
| Aircraft | A319/M-SDE3FGHIRWY/LB1 |
Departure
| Time | 2026-04-30 18:22 |
|---|---|
| Airport | Turin Airport (LIMF) |
Arrival
| Time | 2026-04-30 19:25 |
|---|---|
| Airport | Charles de Gaulle International Airport (LFPG) |
| Time | Latitude | Longitude | Altitude | Speed | Heading |
|---|---|---|---|---|---|
| 2026-04-30 17:50 | 45.19220 | 7.64521 | 986 ft | 0 kts | 256° |
| 2026-04-30 18:15 | 45.19237 | 7.64627 | 990 ft | 4 kts | 254° |
| 2026-04-30 18:15 | 45.19255 | 7.64668 | 994 ft | 0 kts | 182° |
| 2026-04-30 18:17 | 45.19253 | 7.64668 | 994 ft | 1 kts | 182° |
| 2026-04-30 18:17 | 45.19130 | 7.64661 | 986 ft | 14 kts | 182° |
| 2026-04-30 18:18 | 45.19025 | 7.64654 | 986 ft | 15 kts | 182° |
| 2026-04-30 18:18 | 45.18918 | 7.64648 | 990 ft | 16 kts | 178° |
| 2026-04-30 18:18 | 45.18808 | 7.64640 | 985 ft | 16 kts | 183° |
| 2026-04-30 18:18 | 45.18695 | 7.64631 | 985 ft | 16 kts | 181° |
| 2026-04-30 18:19 | 45.18644 | 7.64659 | 985 ft | 0 kts | 136° |
| 2026-04-30 18:20 | 45.18642 | 7.64661 | 993 ft | 3 kts | 134° |
| 2026-04-30 18:20 | 45.18612 | 7.64745 | 990 ft | 16 kts | 95° |
| 2026-04-30 18:20 | 45.18714 | 7.64875 | 980 ft | 27 kts | 6° |
| 2026-04-30 18:21 | 45.18758 | 7.64879 | 981 ft | 0 kts | 2° |
| 2026-04-30 18:21 | 45.18879 | 7.64887 | 981 ft | 57 kts | 2° |
| 2026-04-30 18:21 | 45.19571 | 7.64930 | 983 ft | 140 kts | 2° |
| 2026-04-30 18:22 | 45.20679 | 7.64993 | 1462 ft | 161 kts | 2° |
| 2026-04-30 18:22 | 45.22905 | 7.65194 | 3160 ft | 157 kts | 3° |
| 2026-04-30 18:22 | 45.23983 | 7.65265 | 3822 ft | 154 kts | 2° |
| 2026-04-30 18:23 | 45.25054 | 7.65675 | 4277 ft | 165 kts | 33° |
| 2026-04-30 18:23 | 45.25841 | 7.66928 | 4674 ft | 179 kts | 64° |
| 2026-04-30 18:23 | 45.26160 | 7.68708 | 5074 ft | 195 kts | 84° |
| 2026-04-30 18:23 | 45.26158 | 7.70752 | 5360 ft | 221 kts | 95° |
| 2026-04-30 18:24 | 45.25664 | 7.75435 | 6610 ft | 250 kts | 101° |
| 2026-04-30 18:24 | 45.25308 | 7.77865 | 7445 ft | 255 kts | 102° |
| 2026-04-30 18:24 | 45.24580 | 7.80261 | 7947 ft | 276 kts | 127° |
| 2026-04-30 18:25 | 45.23068 | 7.81981 | 8698 ft | 286 kts | 156° |
| 2026-04-30 18:25 | 45.19195 | 7.81431 | 10323 ft | 299 kts | 218° |
| 2026-04-30 18:25 | 45.17906 | 7.79148 | 11073 ft | 301 kts | 250° |
| 2026-04-30 18:26 | 45.18355 | 7.73492 | 12452 ft | 308 kts | 302° |
| 2026-04-30 18:26 | 45.19638 | 7.70950 | 12744 ft | 327 kts | 314° |
| 2026-04-30 18:26 | 45.21280 | 7.68661 | 13359 ft | 335 kts | 318° |
| 2026-04-30 18:27 | 45.24638 | 7.63975 | 14786 ft | 343 kts | 316° |
| 2026-04-30 18:27 | 45.26331 | 7.61562 | 15451 ft | 346 kts | 316° |
| 2026-04-30 18:28 | 45.30018 | 7.57073 | 16769 ft | 353 kts | 325° |
| 2026-04-30 18:28 | 45.32021 | 7.55025 | 17426 ft | 357 kts | 325° |
| 2026-04-30 18:28 | 45.36097 | 7.50857 | 18688 ft | 365 kts | 325° |
| 2026-04-30 18:29 | 45.38167 | 7.48739 | 19263 ft | 368 kts | 325° |
| 2026-04-30 18:29 | 45.44488 | 7.42259 | 21026 ft | 379 kts | 325° |
| 2026-04-30 18:30 | 45.48097 | 7.38552 | 22003 ft | 384 kts | 326° |
| 2026-04-30 18:30 | 45.52465 | 7.34052 | 23141 ft | 391 kts | 326° |
| 2026-04-30 18:31 | 45.54681 | 7.31770 | 23698 ft | 394 kts | 326° |
| 2026-04-30 18:31 | 45.59161 | 7.27149 | 24636 ft | 400 kts | 326° |
| 2026-04-30 18:32 | 45.63707 | 7.22449 | 25543 ft | 405 kts | 325° |
| 2026-04-30 18:32 | 45.66090 | 7.20296 | 25957 ft | 407 kts | 334° |
| 2026-04-30 18:32 | 45.71250 | 7.16882 | 26828 ft | 411 kts | 336° |
| 2026-04-30 18:33 | 45.73857 | 7.15173 | 27240 ft | 414 kts | 336° |
| 2026-04-30 18:33 | 45.79126 | 7.11697 | 28043 ft | 419 kts | 336° |
| 2026-04-30 18:33 | 45.81819 | 7.09915 | 28459 ft | 422 kts | 336° |
| 2026-04-30 18:34 | 45.84492 | 7.08144 | 28862 ft | 425 kts | 336° |
| 2026-04-30 18:34 | 45.89887 | 7.04557 | 29642 ft | 430 kts | 336° |
| 2026-04-30 18:34 | 45.92611 | 7.02743 | 30031 ft | 433 kts | 336° |
| 2026-04-30 18:35 | 45.95350 | 7.00919 | 30368 ft | 435 kts | 336° |
| 2026-04-30 18:35 | 45.98103 | 6.99086 | 30665 ft | 437 kts | 336° |
| 2026-04-30 18:35 | 46.00867 | 6.97247 | 30969 ft | 439 kts | 336° |
| 2026-04-30 18:36 | 46.06446 | 6.93528 | 31569 ft | 443 kts | 336° |
| 2026-04-30 18:36 | 46.09252 | 6.91651 | 31861 ft | 445 kts | 336° |
| 2026-04-30 18:36 | 46.14843 | 6.87894 | 32725 ft | 442 kts | 336° |
| 2026-04-30 18:37 | 46.17625 | 6.86025 | 33163 ft | 441 kts | 336° |
| 2026-04-30 18:37 | 46.20403 | 6.84157 | 33600 ft | 440 kts | 336° |
| 2026-04-30 18:37 | 46.23169 | 6.82298 | 34036 ft | 439 kts | 336° |
| 2026-04-30 18:37 | 46.25943 | 6.80435 | 34171 ft | 437 kts | 336° |
| 2026-04-30 18:38 | 46.28661 | 6.78604 | 34187 ft | 427 kts | 336° |
| 2026-04-30 18:38 | 46.34001 | 6.74991 | 34185 ft | 422 kts | 336° |
| 2026-04-30 18:39 | 46.39325 | 6.71389 | 34191 ft | 422 kts | 336° |
| 2026-04-30 18:39 | 46.44175 | 6.66605 | 34188 ft | 426 kts | 317° |
| 2026-04-30 18:40 | 46.47681 | 6.59658 | 34187 ft | 430 kts | 301° |
| 2026-04-30 18:40 | 46.50669 | 6.52068 | 34180 ft | 431 kts | 301° |
| 2026-04-30 18:41 | 46.53650 | 6.44521 | 34173 ft | 431 kts | 301° |
| 2026-04-30 18:41 | 46.56626 | 6.36962 | 34169 ft | 431 kts | 301° |
| 2026-04-30 18:42 | 46.59604 | 6.29375 | 34167 ft | 432 kts | 301° |
| 2026-04-30 18:42 | 46.64065 | 6.17962 | 34160 ft | 433 kts | 301° |
| 2026-04-30 18:45 | 46.80573 | 5.75943 | 34122 ft | 434 kts | 310° |
| 2026-04-30 18:46 | 46.84996 | 5.70046 | 34116 ft | 431 kts | 329° |
| 2026-04-30 18:46 | 46.90223 | 5.65795 | 34114 ft | 430 kts | 333° |
| 2026-04-30 18:47 | 46.95479 | 5.61566 | 34114 ft | 431 kts | 333° |
| 2026-04-30 18:47 | 47.00727 | 5.57322 | 34115 ft | 432 kts | 333° |
| 2026-04-30 18:48 | 47.05987 | 5.53066 | 34112 ft | 432 kts | 333° |
| 2026-04-30 18:48 | 47.11289 | 5.48772 | 34119 ft | 432 kts | 333° |
| 2026-04-30 18:49 | 47.16559 | 5.44504 | 34119 ft | 433 kts | 333° |
| 2026-04-30 18:49 | 47.21826 | 5.40224 | 34121 ft | 433 kts | 333° |
| 2026-04-30 18:50 | 47.27101 | 5.35922 | 34136 ft | 433 kts | 333° |
| 2026-04-30 18:50 | 47.32381 | 5.31617 | 34140 ft | 434 kts | 333° |
| 2026-04-30 18:51 | 47.37664 | 5.27320 | 34141 ft | 434 kts | 333° |
| 2026-04-30 18:51 | 47.42958 | 5.22988 | 34048 ft | 438 kts | 333° |
| 2026-04-30 18:51 | 47.45614 | 5.20813 | 33768 ft | 437 kts | 333° |
| 2026-04-30 18:52 | 47.48265 | 5.18635 | 33401 ft | 433 kts | 333° |
| 2026-04-30 18:52 | 47.50882 | 5.16482 | 32875 ft | 429 kts | 333° |
| 2026-04-30 18:52 | 47.53483 | 5.14339 | 32354 ft | 427 kts | 333° |
| 2026-04-30 18:52 | 47.56064 | 5.12206 | 31835 ft | 424 kts | 333° |
| 2026-04-30 18:53 | 47.58606 | 5.10010 | 31359 ft | 421 kts | 327° |
| 2026-04-30 18:53 | 47.60904 | 5.07364 | 30876 ft | 419 kts | 321° |
| 2026-04-30 18:53 | 47.63130 | 5.04566 | 30398 ft | 417 kts | 321° |
| 2026-04-30 18:53 | 47.65341 | 5.01789 | 29871 ft | 415 kts | 321° |
| 2026-04-30 18:54 | 47.67521 | 4.99055 | 29412 ft | 410 kts | 321° |
| 2026-04-30 18:54 | 47.69694 | 4.96326 | 28961 ft | 407 kts | 321° |
| 2026-04-30 18:54 | 47.71846 | 4.93621 | 28516 ft | 403 kts | 321° |
| 2026-04-30 18:54 | 47.73979 | 4.90937 | 28082 ft | 400 kts | 321° |
| 2026-04-30 18:55 | 47.76097 | 4.88265 | 27682 ft | 401 kts | 321° |
| 2026-04-30 18:55 | 47.80343 | 4.82883 | 26884 ft | 399 kts | 321° |
| 2026-04-30 18:55 | 47.82477 | 4.80170 | 26485 ft | 398 kts | 321° |
| 2026-04-30 18:56 | 47.86662 | 4.74833 | 25689 ft | 394 kts | 321° |
| 2026-04-30 18:56 | 47.88739 | 4.72183 | 25297 ft | 392 kts | 321° |
| 2026-04-30 18:56 | 47.90803 | 4.69553 | 24908 ft | 390 kts | 321° |
| 2026-04-30 18:57 | 47.94910 | 4.64311 | 24127 ft | 387 kts | 321° |
| 2026-04-30 18:57 | 47.96923 | 4.61741 | 23744 ft | 385 kts | 321° |
| 2026-04-30 18:57 | 47.98975 | 4.59115 | 23300 ft | 383 kts | 321° |
| 2026-04-30 18:58 | 48.02994 | 4.53954 | 22552 ft | 378 kts | 321° |
| 2026-04-30 18:58 | 48.04987 | 4.51389 | 22168 ft | 376 kts | 321° |
| 2026-04-30 18:58 | 48.06960 | 4.48846 | 21792 ft | 374 kts | 321° |
| 2026-04-30 18:59 | 48.10874 | 4.43795 | 21051 ft | 369 kts | 321° |
| 2026-04-30 19:00 | 48.16646 | 4.36343 | 19954 ft | 362 kts | 321° |
| 2026-04-30 19:00 | 48.18548 | 4.33884 | 19591 ft | 360 kts | 321° |
| 2026-04-30 19:00 | 48.22307 | 4.29013 | 18875 ft | 356 kts | 320° |
| 2026-04-30 19:01 | 48.26016 | 4.24141 | 18127 ft | 353 kts | 316° |
| 2026-04-30 19:01 | 48.27619 | 4.21373 | 17776 ft | 351 kts | 310° |
| 2026-04-30 19:02 | 48.30203 | 4.16645 | 17182 ft | 348 kts | 310° |
| 2026-04-30 19:02 | 48.33260 | 4.11076 | 16572 ft | 341 kts | 310° |
| 2026-04-30 19:03 | 48.36253 | 4.05618 | 15882 ft | 336 kts | 310° |
| 2026-04-30 19:03 | 48.39204 | 4.00231 | 15238 ft | 331 kts | 310° |
| 2026-04-30 19:04 | 48.42107 | 3.94919 | 14637 ft | 326 kts | 310° |
| 2026-04-30 19:04 | 48.44972 | 3.89658 | 14043 ft | 324 kts | 310° |
| 2026-04-30 19:05 | 48.47814 | 3.84437 | 13428 ft | 321 kts | 310° |
| 2026-04-30 19:05 | 48.50620 | 3.79253 | 12842 ft | 318 kts | 310° |
| 2026-04-30 19:06 | 48.53397 | 3.74119 | 12265 ft | 314 kts | 310° |
| 2026-04-30 19:06 | 48.54656 | 3.71429 | 12008 ft | 313 kts | 303° |
| 2026-04-30 19:06 | 48.57025 | 3.65918 | 11508 ft | 309 kts | 303° |
| 2026-04-30 19:07 | 48.59355 | 3.60504 | 11022 ft | 306 kts | 303° |
| 2026-04-30 19:07 | 48.60511 | 3.57812 | 10779 ft | 304 kts | 303° |
| 2026-04-30 19:08 | 48.62802 | 3.52467 | 10298 ft | 301 kts | 303° |
| 2026-04-30 19:08 | 48.65064 | 3.47181 | 10133 ft | 307 kts | 302° |
| 2026-04-30 19:08 | 48.66290 | 3.44304 | 10173 ft | 342 kts | 302° |
| 2026-04-30 19:09 | 48.69052 | 3.37818 | 10173 ft | 379 kts | 302° |
| 2026-04-30 19:09 | 48.70486 | 3.34445 | 10177 ft | 381 kts | 302° |
| 2026-04-30 19:09 | 48.71920 | 3.31079 | 10174 ft | 381 kts | 302° |
| 2026-04-30 19:10 | 48.74795 | 3.24323 | 10172 ft | 382 kts | 302° |
| 2026-04-30 19:10 | 48.77641 | 3.17607 | 10174 ft | 381 kts | 302° |
| 2026-04-30 19:11 | 48.79072 | 3.14222 | 10176 ft | 382 kts | 302° |
| 2026-04-30 19:11 | 48.81932 | 3.07429 | 10181 ft | 382 kts | 302° |
| 2026-04-30 19:11 | 48.83361 | 3.04031 | 10175 ft | 381 kts | 302° |
| 2026-04-30 19:12 | 48.84880 | 3.00731 | 10172 ft | 381 kts | 310° |
| 2026-04-30 19:12 | 48.86666 | 2.97755 | 10178 ft | 382 kts | 313° |
| 2026-04-30 19:12 | 48.88118 | 2.95355 | 10180 ft | 382 kts | 313° |
| 2026-04-30 19:13 | 48.91662 | 2.89344 | 10175 ft | 382 kts | 306° |
| 2026-04-30 19:13 | 48.93465 | 2.81813 | 10183 ft | 380 kts | 272° |
| 2026-04-30 19:13 | 48.93351 | 2.77814 | 10188 ft | 379 kts | 264° |
| 2026-04-30 19:14 | 48.93142 | 2.73970 | 10107 ft | 369 kts | 264° |
| 2026-04-30 19:14 | 48.92934 | 2.70079 | 9971 ft | 350 kts | 264° |
| 2026-04-30 19:14 | 48.92746 | 2.66470 | 9850 ft | 334 kts | 264° |
| 2026-04-30 19:14 | 48.92566 | 2.63024 | 9713 ft | 320 kts | 264° |
| 2026-04-30 19:15 | 48.92393 | 2.59722 | 9581 ft | 308 kts | 264° |
| 2026-04-30 19:15 | 48.92048 | 2.53426 | 9295 ft | 294 kts | 264° |
| 2026-04-30 19:15 | 48.91876 | 2.50342 | 9166 ft | 292 kts | 264° |
| 2026-04-30 19:16 | 48.91705 | 2.47274 | 9038 ft | 292 kts | 263° |
| 2026-04-30 19:16 | 48.91534 | 2.44206 | 8822 ft | 290 kts | 264° |
| 2026-04-30 19:16 | 48.91194 | 2.38132 | 8318 ft | 286 kts | 263° |
| 2026-04-30 19:17 | 48.91028 | 2.35121 | 8068 ft | 285 kts | 263° |
| 2026-04-30 19:17 | 48.90696 | 2.29156 | 7558 ft | 282 kts | 263° |
| 2026-04-30 19:17 | 48.90527 | 2.26217 | 7215 ft | 277 kts | 263° |
| 2026-04-30 19:18 | 48.90251 | 2.21433 | 6623 ft | 270 kts | 263° |
| 2026-04-30 19:18 | 48.90474 | 2.17689 | 6102 ft | 269 kts | 292° |
| 2026-04-30 19:18 | 48.91642 | 2.15506 | 5731 ft | 269 kts | 324° |
| 2026-04-30 19:19 | 48.93365 | 2.14568 | 5532 ft | 260 kts | 357° |
| 2026-04-30 19:19 | 48.95088 | 2.15027 | 5506 ft | 252 kts | 26° |
| 2026-04-30 19:19 | 48.97173 | 2.18892 | 5138 ft | 241 kts | 82° |
| 2026-04-30 19:20 | 48.97347 | 2.21445 | 4843 ft | 239 kts | 89° |
| 2026-04-30 19:20 | 48.97486 | 2.23950 | 4526 ft | 236 kts | 88° |
| 2026-04-30 19:20 | 48.97763 | 2.28838 | 3908 ft | 227 kts | 88° |
| 2026-04-30 19:21 | 48.97897 | 2.31220 | 3608 ft | 224 kts | 88° |
| 2026-04-30 19:21 | 48.98152 | 2.35762 | 3034 ft | 207 kts | 89° |
| 2026-04-30 19:22 | 48.98376 | 2.39789 | 2531 ft | 179 kts | 89° |
| 2026-04-30 19:22 | 48.98655 | 2.44842 | 1895 ft | 139 kts | 89° |
| 2026-04-30 19:23 | 48.98881 | 2.48835 | 1424 ft | 123 kts | 89° |
| 2026-04-30 19:24 | 48.99016 | 2.51407 | 1068 ft | 125 kts | 88° |
| 2026-04-30 19:24 | 48.99087 | 2.52711 | 866 ft | 125 kts | 87° |
| 2026-04-30 19:24 | 48.99225 | 2.55290 | 576 ft | 122 kts | 86° |
| 2026-04-30 19:25 | 48.99395 | 2.58478 | 352 ft | 42 kts | 85° |
| 2026-04-30 19:26 | 48.99423 | 2.59025 | 351 ft | 27 kts | 85° |
| 2026-04-30 19:26 | 48.99548 | 2.59519 | 359 ft | 22 kts | 65° |
| 2026-04-30 19:26 | 48.99614 | 2.59680 | 353 ft | 15 kts | 28° |
| 2026-04-30 19:27 | 48.99852 | 2.59668 | 353 ft | 15 kts | 355° |
| 2026-04-30 19:27 | 49.00067 | 2.59641 | 354 ft | 16 kts | 353° |
| 2026-04-30 19:28 | 49.00182 | 2.59625 | 354 ft | 17 kts | 355° |
| 2026-04-30 19:28 | 49.00424 | 2.59595 | 354 ft | 18 kts | 355° |
| 2026-04-30 19:29 | 49.00670 | 2.59564 | 354 ft | 16 kts | 355° |
| 2026-04-30 19:29 | 49.00778 | 2.59551 | 360 ft | 15 kts | 355° |
| 2026-04-30 19:30 | 49.01002 | 2.59438 | 357 ft | 10 kts | 266° |
| 2026-04-30 19:30 | 49.00987 | 2.59174 | 355 ft | 13 kts | 265° |
| 2026-04-30 19:31 | 49.00946 | 2.58875 | 355 ft | 18 kts | 265° |
| 2026-04-30 19:31 | 49.00937 | 2.58691 | 359 ft | 17 kts | 265° |
| 2026-04-30 19:31 | 49.00919 | 2.58365 | 355 ft | 16 kts | 265° |
| 2026-04-30 19:32 | 49.00910 | 2.58193 | 355 ft | 16 kts | 265° |
| 2026-04-30 19:32 | 49.00902 | 2.58031 | 355 ft | 15 kts | 266° |
| 2026-04-30 19:32 | 49.00896 | 2.57884 | 355 ft | 13 kts | 264° |
| 2026-04-30 19:32 | 49.00878 | 2.57752 | 358 ft | 12 kts | 231° |
| 2026-04-30 19:33 | 49.00808 | 2.57707 | 362 ft | 12 kts | 219° |
| 2026-04-30 19:33 | 49.00790 | 2.57573 | 358 ft | 14 kts | 266° |
| 2026-04-30 19:33 | 49.00782 | 2.57430 | 359 ft | 13 kts | 265° |
| 2026-04-30 19:33 | 49.00756 | 2.57324 | 359 ft | 10 kts | 188° |
| 2026-04-30 19:34 | 49.00701 | 2.57357 | 354 ft | 0 kts | 162° |
| 2026-04-30 19:34 | 49.00695 | 2.57361 | 354 ft | 0 kts | 159° |